Time;durP1;ratioP1;P1;durP2;ratioP2;P2;SDS_P1;SDS_P2;PMS_P1;PMS_P2;Temp;Humidity;BMP_temperature;BMP_pressure;BME280_temperature;BME280_humidity;BME280_pressure;Samples;Min_cycle;Max_cycle;Signal;HPM_P1;HPM_P2
2021/03/26 00:02:35;;;;;;;112.78;89.30;;;20.80;44.00;;;;;;4761417;55;21081;-17
2021/03/26 00:07:39;;;;;;;106.30;83.93;;;20.80;43.90;;;;;;4748040;55;21061;-17
2021/03/26 00:12:40;;;;;;;103.87;81.90;;;20.80;43.90;;;;;;4743986;55;21070;-29
2021/03/26 00:17:41;;;;;;;106.70;85.35;;;20.80;43.80;;;;;;4745126;55;21078;-26
2021/03/26 00:22:42;;;;;;;108.95;86.43;;;20.70;43.80;;;;;;4737968;59;21488;-25
2021/03/26 00:27:43;;;;;;;105.78;84.95;;;20.80;43.80;;;;;;4766257;55;21057;-21
2021/03/26 00:32:44;;;;;;;108.60;84.97;;;20.80;43.70;;;;;;4743040;55;20990;-27
2021/03/26 00:37:45;;;;;;;104.22;81.87;;;20.80;43.70;;;;;;4777587;55;21018;-24
2021/03/26 00:42:46;;;;;;;101.55;80.53;;;20.70;43.60;;;;;;4743019;55;21006;-18
2021/03/26 00:47:47;;;;;;;103.78;81.75;;;20.80;43.60;;;;;;4783120;55;21014;-25
2021/03/26 00:52:49;;;;;;;101.85;82.30;;;20.70;43.60;;;;;;4756161;55;21139;-19
2021/03/26 00:57:50;;;;;;;102.62;80.68;;;20.70;43.50;;;;;;4741483;55;21077;-19
2021/03/26 01:02:51;;;;;;;104.87;81.45;;;20.70;43.50;;;;;;4757967;55;21635;-26
2021/03/26 01:07:51;;;;;;;99.40;78.57;;;20.70;43.40;;;;;;4737802;59;21010;-22
2021/03/26 01:12:53;;;;;;;100.93;79.10;;;20.70;43.40;;;;;;4742622;55;21038;-22
2021/03/26 01:17:57;;;;;;;97.18;78.00;;;20.70;43.40;;;;;;4759315;55;21074;-26
2021/03/26 01:22:59;;;;;;;99.30;77.45;;;20.70;43.30;;;;;;4737736;59;21086;-20
2021/03/26 01:28:00;;;;;;;98.22;77.43;;;20.70;43.30;;;;;;4737110;55;21615;-21
2021/03/26 01:33:02;;;;;;;97.43;77.75;;;20.70;43.30;;;;;;4753124;55;21022;-24
2021/03/26 01:38:03;;;;;;;97.47;77.93;;;20.70;43.90;;;;;;4737056;59;21038;-19
2021/03/26 01:43:06;;;;;;;97.10;76.75;;;20.70;43.20;;;;;;4748831;55;21014;-25
2021/03/26 01:48:10;;;;;;;94.82;74.30;;;20.70;43.20;;;;;;4738006;59;21057;-32
2021/03/26 01:53:11;;;;;;;93.72;74.43;;;20.70;43.10;;;;;;4759695;55;21114;-23
2021/03/26 01:58:16;;;;;;;98.32;77.35;;;20.70;43.10;;;;;;4751462;55;21145;-23
2021/03/26 02:03:29;;;;;;;92.62;74.00;;;20.70;43.10;;;;;;4825676;55;21121;-24
2021/03/26 02:08:37;;;;;;;93.47;73.75;;;20.70;43.00;;;;;;4759884;55;21034;-21
2021/03/26 02:13:39;;;;;;;91.60;71.50;;;20.70;43.00;;;;;;4767101;55;21029;-21
2021/03/26 02:18:42;;;;;;;92.00;74.65;;;20.70;43.00;;;;;;4773763;55;21136;-25
2021/03/26 02:23:44;;;;;;;90.57;73.37;;;20.70;42.80;;;;;;4738438;55;21109;-20
2021/03/26 02:28:45;;;;;;;89.40;70.87;;;20.70;42.90;;;;;;4738073;59;21002;-18
2021/03/26 02:33:47;;;;;;;89.25;71.22;;;20.70;42.90;;;;;;4752213;55;21010;-30
2021/03/26 02:38:54;;;;;;;89.40;70.25;;;20.70;42.90;;;;;;4777055;55;20998;-22
2021/03/26 02:45:04;;;;;;;91.77;73.53;;;20.60;42.80;;;;;;4777816;55;21014;-29
2021/03/26 02:50:43;;;;;;;83.97;66.80;;;20.70;42.80;;;;;;4737472;55;21022;-27
2021/03/26 02:57:11;;;;;;;87.60;69.15;;;20.70;42.70;;;;;;4757577;55;21026;-27
2021/03/26 03:02:15;;;;;;;84.93;67.05;;;20.70;42.70;;;;;;4781032;55;21053;-16
2021/03/26 03:07:25;;;;;;;86.50;67.40;;;20.60;42.60;;;;;;4764420;55;21062;-25
2021/03/26 03:12:40;;;;;;;83.82;65.35;;;20.60;42.60;;;;;;4742603;55;21147;-26
2021/03/26 03:17:48;;;;;;;82.15;65.50;;;20.60;42.50;;;;;;4745575;55;21050;-28
2021/03/26 03:23:21;;;;;;;84.13;66.05;;;20.60;42.50;;;;;;4751283;55;21126;-26
2021/03/26 03:28:53;;;;;;;81.72;64.65;;;20.60;42.50;;;;;;4745771;55;21061;-21
2021/03/26 03:34:13;;;;;;;80.32;64.12;;;20.60;42.40;;;;;;4758916;55;21058;-18
2021/03/26 03:39:28;;;;;;;79.00;62.08;;;20.60;42.40;;;;;;4737876;59;21025;-19
2021/03/26 03:44:43;;;;;;;77.62;63.38;;;20.60;42.40;;;;;;4769623;55;20994;-20
2021/03/26 03:50:41;;;;;;;77.45;62.30;;;20.60;42.40;;;;;;4777341;55;21034;-23
2021/03/26 03:57:23;;;;;;;77.70;61.00;;;20.60;42.40;;;;;;4745297;55;21129;-22
2021/03/26 04:03:05;;;;;;;76.47;61.72;;;20.60;42.30;;;;;;4763644;55;21030;-25
2021/03/26 04:08:20;;;;;;;78.97;62.45;;;20.60;42.30;;;;;;4748537;55;20995;-29
2021/03/26 04:13:36;;;;;;;76.55;59.80;;;20.60;42.20;;;;;;4763113;55;20990;-26
2021/03/26 04:18:50;;;;;;;74.65;60.38;;;20.60;42.20;;;;;;4777689;55;20990;-29
2021/03/26 04:23:59;;;;;;;74.47;59.00;;;20.60;42.20;;;;;;4738116;59;21109;-28
2021/03/26 04:29:27;;;;;;;72.72;57.85;;;20.60;42.10;;;;;;4777750;55;21053;-28
2021/03/26 04:34:28;;;;;;;73.70;59.65;;;20.50;42.00;;;;;;4737683;57;21089;-27
2021/03/26 04:43:10;;;;;;;71.15;57.75;;;20.60;42.10;;;;;;4779829;55;21065;-26
2021/03/26 04:48:36;;;;;;;73.55;59.60;;;20.60;42.10;;;;;;4754092;55;21006;-21
2021/03/26 04:53:59;;;;;;;71.05;56.05;;;20.60;42.00;;;;;;4756850;55;20986;-30
2021/03/26 04:59:03;;;;;;;70.62;55.78;;;20.60;42.10;;;;;;4803414;55;21053;-23
2021/03/26 05:04:51;;;;;;;70.85;57.33;;;20.60;42.10;;;;;;4821043;55;21049;-25
2021/03/26 05:09:55;;;;;;;67.25;55.05;;;20.60;42.10;;;;;;4779123;55;21114;-20
2021/03/26 05:15:54;;;;;;;68.47;54.05;;;20.60;42.10;;;;;;4738113;55;20998;-25
2021/03/26 05:21:16;;;;;;;67.20;53.70;;;20.50;42.10;;;;;;4737951;59;21055;-19
2021/03/26 05:26:18;;;;;;;68.97;55.33;;;20.50;42.70;;;;;;4749683;55;21567;-24
2021/03/26 05:32:56;;;;;;;68.62;54.85;;;20.50;42.10;;;;;;4756648;55;21017;-18
2021/03/26 05:38:11;;;;;;;64.45;52.90;;;20.50;42.10;;;;;;4738302;55;21046;-26
2021/03/26 05:46:30;;;;;;;66.70;53.33;;;20.50;42.10;;;;;;4740440;55;21480;-27
2021/03/26 05:53:43;;;;;;;68.25;53.42;;;20.50;42.10;;;;;;4752679;55;21066;-31
2021/03/26 05:58:54;;;;;;;68.12;53.40;;;20.50;42.30;;;;;;4765128;55;21092;-32
2021/03/26 06:07:21;;;;;;;66.82;53.28;;;20.50;42.40;;;;;;4737847;59;21034;-28
2021/03/26 06:16:09;;;;;;;68.45;53.38;;;20.50;42.40;;;;;;4774722;55;21026;-25
2021/03/26 06:21:46;;;;;;;68.43;52.90;;;20.50;42.50;;;;;;4801431;55;21081;-24
2021/03/26 06:30:11;;;;;;;65.47;52.80;;;20.50;42.50;;;;;;4776243;55;21122;-27
2021/03/26 06:38:43;;;;;;;63.87;51.15;;;20.50;42.40;;;;;;4741258;55;21495;-26
2021/03/26 06:44:50;;;;;;;66.68;52.70;;;20.50;42.40;;;;;;4738372;59;21985;-21
2021/03/26 06:55:19;;;;;;;68.55;54.15;;;20.50;42.40;;;;;;4758564;55;21073;-30
2021/03/26 07:01:02;;;;;;;72.90;55.67;;;20.50;42.50;;;;;;4738237;59;21137;-31
2021/03/26 07:06:43;;;;;;;69.87;55.78;;;20.50;42.40;;;;;;4777137;55;20974;-30
2021/03/26 07:12:13;;;;;;;70.00;54.65;;;20.50;42.30;;;;;;4802511;55;21547;-19
2021/03/26 07:17:57;;;;;;;75.12;57.40;;;20.50;42.40;;;;;;4750725;55;21045;-31
2021/03/26 07:26:28;;;;;;;73.78;55.80;;;20.50;42.40;;;;;;4840098;55;21006;-22
2021/03/26 07:32:03;;;;;;;73.53;58.47;;;20.50;42.40;;;;;;4741901;55;21058;-31
2021/03/26 07:40:07;;;;;;;75.03;58.25;;;20.50;42.40;;;;;;4759791;55;21002;-24
2021/03/26 07:45:31;;;;;;;77.20;59.78;;;20.50;42.40;;;;;;4789986;55;21664;-29
2021/03/26 07:51:00;;;;;;;77.53;59.28;;;20.40;42.30;;;;;;4744195;55;21030;-20
2021/03/26 07:56:32;;;;;;;76.40;58.78;;;20.50;42.40;;;;;;4779866;55;21539;-28
2021/03/26 08:03:04;;;;;;;81.70;61.53;;;20.50;42.40;;;;;;4747610;55;21539;-32
2021/03/26 08:10:49;;;;;;;83.25;63.83;;;20.40;42.40;;;;;;4737809;55;21034;-28
2021/03/26 08:17:43;;;;;;;79.68;61.88;;;20.50;42.80;;;;;;4788887;55;22039;-28
2021/03/26 08:23:53;;;;;;;83.87;64.97;;;20.60;42.90;;;;;;4768028;55;20990;-17
2021/03/26 08:29:24;;;;;;;86.37;65.90;;;20.90;43.20;;;;;;4738273;59;21066;-30
2021/03/26 08:37:31;;;;;;;84.32;66.70;;;21.00;43.20;;;;;;4746026;55;21556;-18
2021/03/26 08:42:42;;;;;;;86.35;67.82;;;21.10;43.20;;;;;;4752375;55;21114;-25
2021/03/26 08:47:59;;;;;;;87.22;67.37;;;21.30;43.40;;;;;;4777311;55;21444;-28
2021/03/26 08:56:16;;;;;;;95.70;71.67;;;21.40;43.50;;;;;;4813523;55;21103;-29
2021/03/26 09:01:26;;;;;;;96.25;74.15;;;21.50;43.60;;;;;;4762779;55;21030;-29
2021/03/26 09:08:08;;;;;;;97.10;75.82;;;21.60;44.00;;;;;;4741725;55;21018;-26
2021/03/26 09:15:52;;;;;;;100.60;77.97;;;21.70;44.00;;;;;;4745266;55;21053;-25
2021/03/26 09:21:08;;;;;;;102.78;77.28;;;21.80;44.20;;;;;;4738759;55;21018;-29
2021/03/26 09:26:45;;;;;;;102.25;79.15;;;21.90;44.70;;;;;;4736788;59;21026;-35
2021/03/26 09:31:57;;;;;;;108.45;81.90;;;21.90;45.00;;;;;;4755544;55;21062;-27
2021/03/26 09:40:38;;;;;;;99.85;76.75;;;22.50;45.30;;;;;;4751185;55;21034;-20
2021/03/26 09:45:45;;;;;;;103.18;79.28;;;22.60;45.20;;;;;;4742279;55;21014;-28
2021/03/26 09:52:07;;;;;;;;;;;22.60;45.00;;;;;;5226367;55;21033;-18
2021/03/26 10:09:22;;;;;;;97.88;76.35;;;22.70;45.10;;;;;;4804371;55;20121;-26
2021/03/26 10:14:29;;;;;;;110.57;86.97;;;22.70;45.00;;;;;;4751987;55;21563;-26
2021/03/26 10:19:49;;;;;;;111.65;86.05;;;22.70;44.50;;;;;;4766512;55;21010;-21
2021/03/26 10:25:06;;;;;;;116.25;87.88;;;22.70;44.30;;;;;;4760475;55;21081;-22
2021/03/26 10:30:26;;;;;;;105.73;82.43;;;22.70;44.40;;;;;;4776928;55;21002;-22
2021/03/26 10:35:28;;;;;;;107.93;84.85;;;22.70;44.50;;;;;;4755195;55;22161;-21
2021/03/26 10:42:07;;;;;;;108.50;85.38;;;22.70;44.60;;;;;;4749035;55;21101;-28
2021/03/26 10:47:26;;;;;;;110.65;86.95;;;22.60;44.70;;;;;;4756653;55;21558;-25
2021/03/26 10:52:45;;;;;;;111.47;87.60;;;22.60;44.90;;;;;;4744073;55;21196;-23
2021/03/26 10:58:02;;;;;;;108.40;85.95;;;22.50;45.00;;;;;;4742284;55;21512;-24
2021/03/26 11:03:22;;;;;;;110.17;84.93;;;22.50;45.20;;;;;;4741227;54;21065;-23
2021/03/26 11:08:44;;;;;;;111.20;86.80;;;22.50;45.30;;;;;;4743512;55;21010;-27
2021/03/26 11:14:23;;;;;;;103.47;84.72;;;22.50;45.40;;;;;;4739775;55;21504;-21
2021/03/26 11:23:08;;;;;;;103.75;81.32;;;22.40;45.40;;;;;;4744447;55;21488;-24
2021/03/26 11:28:29;;;;;;;99.68;78.35;;;22.40;45.60;;;;;;4741125;55;21548;-24
2021/03/26 11:35:29;;;;;;;101.18;76.28;;;22.50;46.30;;;;;;4768330;55;21333;-20
2021/03/26 11:40:41;;;;;;;101.50;79.78;;;22.50;46.60;;;;;;4748104;55;21014;-23
2021/03/26 11:45:47;;;;;;;99.62;80.53;;;22.50;46.70;;;;;;4782138;55;21014;-27
2021/03/26 11:51:02;;;;;;;106.22;83.05;;;22.50;46.80;;;;;;4774289;55;21038;-23
2021/03/26 11:56:37;;;;;;;98.20;76.68;;;22.50;47.20;;;;;;4742559;55;21069;-16
2021/03/26 12:02:02;;;;;;;101.07;77.40;;;22.50;47.40;;;;;;4774287;55;21037;-23
2021/03/26 12:07:17;;;;;;;94.03;77.65;;;22.50;47.40;;;;;;4755147;55;21026;-27
2021/03/26 12:12:30;;;;;;;101.45;77.78;;;22.50;47.60;;;;;;4778089;55;21077;-26
2021/03/26 12:17:44;;;;;;;97.22;76.70;;;22.50;47.40;;;;;;4750244;55;21057;-22
2021/03/26 12:23:50;;;;;;;96.12;76.45;;;22.50;47.40;;;;;;4763886;55;21085;-27
2021/03/26 12:30:32;;;;;;;96.13;74.83;;;22.40;47.20;;;;;;4773188;55;21018;-29
2021/03/26 12:38:37;;;;;;;94.82;76.28;;;22.40;47.10;;;;;;4763300;55;21053;-23
2021/03/26 12:43:58;;;;;;;97.93;77.90;;;22.40;47.20;;;;;;4765170;55;21567;-25
2021/03/26 12:49:04;;;;;;;88.03;73.30;;;22.40;47.20;;;;;;4741386;55;21069;-16
2021/03/26 12:56:15;;;;;;;92.78;76.30;;;22.40;47.30;;;;;;4776246;55;21057;-22
2021/03/26 13:03:20;;;;;;;90.32;73.43;;;22.40;47.60;;;;;;4780188;55;21030;-27
2021/03/26 13:08:26;;;;;;;93.68;73.03;;;22.40;47.70;;;;;;4743412;55;21089;-21
2021/03/26 13:13:53;;;;;;;93.25;71.78;;;22.50;48.00;;;;;;4750247;55;21014;-22
2021/03/26 13:19:06;;;;;;;90.43;69.93;;;22.50;48.10;;;;;;4737491;55;21014;-25
2021/03/26 13:28:43;;;;;;;87.80;71.12;;;22.50;48.10;;;;;;4759333;55;21107;-26
2021/03/26 13:34:40;;;;;;;87.45;70.97;;;22.40;48.20;;;;;;4757684;55;21086;-30
2021/03/26 13:39:53;;;;;;;86.43;70.47;;;22.50;48.30;;;;;;4788632;55;21097;-20
2021/03/26 13:45:06;;;;;;;86.22;70.30;;;22.50;48.40;;;;;;4779477;55;20994;-28
2021/03/26 13:50:17;;;;;;;90.22;70.75;;;22.50;48.50;;;;;;4755133;55;21022;-23
2021/03/26 13:55:45;;;;;;;87.75;69.82;;;22.50;48.40;;;;;;4739427;55;21070;-23
2021/03/26 14:00:59;;;;;;;88.37;67.62;;;22.50;48.50;;;;;;4774275;55;21476;-23
2021/03/26 14:06:10;;;;;;;85.50;70.43;;;22.50;48.70;;;;;;4756614;55;21610;-29
2021/03/26 14:11:30;;;;;;;82.40;64.72;;;22.50;48.70;;;;;;4738038;55;21034;-24
2021/03/26 14:18:27;;;;;;;83.85;67.78;;;22.50;48.70;;;;;;4738553;55;21621;-23
2021/03/26 14:23:35;;;;;;;87.53;67.95;;;22.50;48.90;;;;;;4742828;55;21066;-16
2021/03/26 14:28:57;;;;;;;79.55;63.75;;;22.60;49.00;;;;;;4736537;59;21010;-23
2021/03/26 14:34:30;;;;;;;82.60;65.60;;;22.50;49.00;;;;;;4758412;55;20991;-28
2021/03/26 14:39:35;;;;;;;77.18;64.50;;;22.50;49.20;;;;;;4739705;55;21234;-23
2021/03/26 14:45:00;;;;;;;77.82;64.70;;;22.50;49.10;;;;;;4758732;55;21082;-27
2021/03/26 14:50:25;;;;;;;81.10;64.55;;;22.60;49.20;;;;;;4760058;55;21038;-24
2021/03/26 15:01:24;;;;;;;196.23;174.80;;;22.60;49.00;;;;;;4758560;54;28492;-24
2021/03/26 15:07:12;;;;;;;147.52;127.55;;;22.50;43.60;;;;;;4761545;54;21009;-25
2021/03/26 15:14:22;;;;;;;158.02;136.93;;;22.40;43.30;;;;;;4741524;58;20990;-18
2021/03/26 15:19:27;;;;;;;148.82;125.95;;;22.30;43.90;;;;;;4762432;55;21069;-30
2021/03/26 15:27:11;;;;;;;144.15;128.30;;;22.20;44.00;;;;;;4742184;58;21564;-20
2021/03/26 15:32:31;;;;;;;140.55;122.20;;;22.20;44.00;;;;;;4768358;55;21049;-27
2021/03/26 15:39:02;;;;;;;143.32;126.72;;;22.10;44.10;;;;;;4756035;55;21090;-29
2021/03/26 15:44:30;;;;;;;139.55;121.65;;;22.10;44.20;;;;;;4764106;55;21057;-24
2021/03/26 15:49:43;;;;;;;146.60;123.95;;;22.10;44.30;;;;;;4786101;55;21058;-28
2021/03/26 15:55:04;;;;;;;136.90;119.97;;;22.00;44.30;;;;;;4741179;55;21014;-27
2021/03/26 16:00:19;;;;;;;139.95;121.75;;;22.00;44.50;;;;;;4739045;58;21018;-24
2021/03/26 16:06:04;;;;;;;131.73;115.62;;;22.00;44.50;;;;;;4739516;58;21503;-23
2021/03/26 16:12:22;;;;;;;139.15;121.90;;;21.90;45.20;;;;;;4753766;55;21073;-28
2021/03/26 16:19:12;;;;;;;139.27;122.37;;;21.90;44.50;;;;;;4753576;55;21081;-27
2021/03/26 16:30:31;;;;;;;136.57;120.30;;;21.90;44.70;;;;;;4762109;55;21350;-28
2021/03/26 16:36:18;;;;;;;134.85;117.30;;;21.80;44.70;;;;;;4817585;55;21341;-24
2021/03/26 16:41:41;;;;;;;;;;;21.80;44.70;;;;;;4744772;55;21018;-25
2021/03/26 16:47:06;;;;;;;129.05;114.40;;;21.80;44.70;;;;;;4747130;55;20128;-26
2021/03/26 16:56:48;;;;;;;133.82;117.03;;;21.80;44.70;;;;;;4737005;59;21010;-27
2021/03/26 17:05:48;;;;;;;129.23;113.70;;;21.80;44.80;;;;;;4738144;59;21077;-29
2021/03/26 17:11:27;;;;;;;131.00;116.55;;;21.70;44.70;;;;;;4737579;59;21176;-26
2021/03/26 17:18:22;;;;;;;139.68;118.65;;;21.70;44.70;;;;;;4744086;55;21555;-29
2021/03/26 17:25:24;;;;;;;137.85;118.80;;;21.70;44.80;;;;;;4739707;55;21014;-23
2021/03/26 17:31:04;;;;;;;139.05;118.70;;;21.70;44.80;;;;;;4741718;55;21065;-28
2021/03/26 17:42:10;;;;;;;134.02;117.90;;;21.70;44.80;;;;;;4738254;55;21026;-24
2021/03/26 17:51:01;;;;;;;133.95;116.62;;;21.60;44.70;;;;;;4750743;55;21569;-31
2021/03/26 17:59:49;;;;;;;134.93;116.60;;;21.60;44.80;;;;;;4747982;55;21034;-19
2021/03/26 18:05:27;;;;;;;134.18;117.43;;;21.60;44.80;;;;;;4741454;55;21013;-27
2021/03/26 18:10:53;;;;;;;;;;;21.60;44.70;;;;;;4752414;55;20990;-20
2021/03/26 18:17:43;;;;;;;133.70;115.77;;;21.60;44.70;;;;;;4746599;55;20120;-23
2021/03/26 18:24:25;;;;;;;136.40;117.40;;;21.60;44.80;;;;;;4738191;59;21009;-29
2021/03/26 18:33:15;;;;;;;134.80;117.03;;;21.60;44.80;;;;;;4764884;55;21496;-26
2021/03/26 18:38:41;;;;;;;135.43;117.53;;;21.60;44.70;;;;;;4737839;59;21519;-24
2021/03/26 18:45:23;;;;;;;134.60;113.90;;;21.60;44.80;;;;;;4739497;55;20994;-29
2021/03/26 18:51:58;;;;;;;138.70;120.95;;;21.50;44.70;;;;;;4761964;55;21259;-30
2021/03/26 18:57:28;;;;;;;133.87;116.93;;;21.50;44.70;;;;;;4765783;55;20986;-30
2021/03/26 19:03:06;;;;;;;137.23;118.03;;;21.50;44.70;;;;;;4788663;55;21030;-22
2021/03/26 19:08:23;;;;;;;128.18;114.00;;;21.50;44.70;;;;;;4741806;55;21042;-27
2021/03/26 19:13:56;;;;;;;133.48;116.03;;;21.50;44.70;;;;;;4757491;55;21085;-26
2021/03/26 19:20:27;;;;;;;132.32;113.20;;;21.50;44.80;;;;;;4752705;55;21070;-25
2021/03/26 19:25:45;;;;;;;129.43;112.25;;;21.50;44.70;;;;;;4758452;55;21578;-22
2021/03/26 19:31:22;;;;;;;130.95;114.57;;;21.50;44.70;;;;;;4740864;55;21027;-24
2021/03/26 19:36:51;;;;;;;128.75;111.72;;;21.50;44.70;;;;;;4758272;55;21029;-23
2021/03/26 19:42:28;;;;;;;135.90;118.75;;;21.50;44.70;;;;;;4758210;55;21050;-27
2021/03/26 19:50:58;;;;;;;135.18;115.95;;;21.50;44.70;;;;;;4752568;55;22106;-19
2021/03/26 19:58:04;;;;;;;134.12;113.82;;;21.40;44.70;;;;;;4748149;55;21002;-21
2021/03/26 20:03:32;;;;;;;128.97;112.93;;;21.40;44.70;;;;;;4752677;55;21057;-29
2021/03/26 20:08:48;;;;;;;134.35;112.93;;;21.40;44.70;;;;;;4799020;55;21559;-24
2021/03/26 20:13:56;;;;;;;133.57;113.07;;;21.40;44.70;;;;;;4738810;55;21038;-18
2021/03/26 20:19:19;;;;;;;130.60;111.97;;;21.40;44.30;;;;;;4766116;55;21523;-19
2021/03/26 20:24:49;;;;;;;130.52;111.88;;;21.40;45.20;;;;;;4750746;55;22391;-29
2021/03/26 20:34:01;;;;;;;133.65;114.85;;;21.40;44.60;;;;;;4744012;55;20978;-26
2021/03/26 20:39:15;;;;;;;134.77;115.97;;;21.40;44.60;;;;;;4749059;55;21149;-26
2021/03/26 20:44:34;;;;;;;127.60;109.00;;;21.40;44.50;;;;;;4794209;55;21639;-23
2021/03/26 20:51:07;;;;;;;132.43;110.57;;;21.40;44.50;;;;;;4772965;55;21089;-30
2021/03/26 21:02:58;;;;;;;129.77;111.57;;;21.40;44.50;;;;;;4746044;55;21528;-24
2021/03/26 21:08:13;;;;;;;127.70;108.68;;;21.40;44.50;;;;;;4761966;55;21052;-23
2021/03/26 21:16:10;;;;;;;124.93;108.00;;;21.30;44.40;;;;;;4765354;55;21010;-23
2021/03/26 21:21:13;;;;;;;125.95;107.70;;;21.30;44.40;;;;;;4857038;55;21398;-27
2021/03/26 21:26:16;;;;;;;122.72;105.00;;;21.40;45.00;;;;;;4802151;55;21042;-27
2021/03/26 21:34:12;;;;;;;123.45;105.95;;;21.30;44.30;;;;;;4746019;55;21069;-27
2021/03/26 21:46:20;;;;;;;126.75;106.22;;;21.30;44.30;;;;;;4750024;55;21026;-26
2021/03/26 21:58:03;;;;;;;122.95;102.35;;;21.30;44.30;;;;;;4778568;55;21117;-29
2021/03/26 22:04:00;;;;;;;117.10;98.57;;;21.30;44.30;;;;;;4744522;55;21480;-29
2021/03/26 22:12:39;;;;;;;120.15;101.70;;;21.30;44.20;;;;;;4770058;55;20982;-27
2021/03/26 22:17:47;;;;;;;115.95;99.03;;;21.30;44.10;;;;;;4743991;55;21033;-31
2021/03/26 22:22:50;;;;;;;117.82;99.53;;;21.30;44.10;;;;;;4746256;55;21013;-25
2021/03/26 22:28:37;;;;;;;119.07;100.95;;;21.30;44.10;;;;;;4766058;55;21077;-29
2021/03/26 22:35:10;;;;;;;116.50;99.80;;;21.30;44.00;;;;;;4760598;55;21006;-30
2021/03/26 22:41:15;;;;;;;120.28;100.72;;;21.30;44.00;;;;;;4756989;55;21074;-23
2021/03/26 22:46:30;;;;;;;118.28;99.93;;;21.20;43.90;;;;;;4760194;55;21511;-23
2021/03/26 22:52:07;;;;;;;118.40;100.80;;;21.20;43.90;;;;;;4785248;55;21773;-24
2021/03/26 23:03:56;;;;;;;;;;;21.20;43.80;;;;;;4756061;55;21030;-23
2021/03/26 23:09:21;;;;;;;117.15;98.57;;;21.20;43.80;;;;;;4749120;55;20057;-21
2021/03/26 23:14:37;;;;;;;115.75;95.00;;;21.20;43.80;;;;;;4760390;55;20998;-28
2021/03/26 23:20:08;;;;;;;116.32;94.57;;;21.20;43.70;;;;;;4799432;55;21010;-23
2021/03/26 23:25:26;;;;;;;114.10;95.15;;;21.20;43.70;;;;;;4778760;55;20986;-26
2021/03/26 23:30:57;;;;;;;108.28;90.53;;;21.20;43.60;;;;;;4786500;55;21017;-26
2021/03/26 23:36:06;;;;;;;110.55;93.45;;;21.20;43.70;;;;;;4740457;55;21507;-26
2021/03/26 23:41:15;;;;;;;116.10;95.10;;;21.20;43.60;;;;;;4758374;55;21050;-30
2021/03/26 23:46:41;;;;;;;106.93;88.30;;;21.20;43.60;;;;;;4759609;55;21085;-25
2021/03/26 23:51:57;;;;;;;111.03;92.87;;;21.20;43.60;;;;;;4738047;55;21137;-24
2021/03/26 23:56:58;;;;;;;109.95;91.60;;;21.20;43.50;;;;;;4740868;55;21125;-26
